sensor_id;sensor_type;location;lat;lon;timestamp;temperature;humidity
1830;DHT22;914;48.118;11.600;2023-01-01T00:01:22;13.40;93.00
1830;DHT22;914;48.118;11.600;2023-01-01T00:03:49;13.50;93.00
1830;DHT22;914;48.118;11.600;2023-01-01T00:06:15;13.50;92.80
1830;DHT22;914;48.118;11.600;2023-01-01T00:08:40;13.40;92.80
1830;DHT22;914;48.118;11.600;2023-01-01T00:11:07;13.50;92.80
1830;DHT22;914;48.118;11.600;2023-01-01T00:13:35;13.50;92.50
1830;DHT22;914;48.118;11.600;2023-01-01T00:16:12;13.60;92.40
1830;DHT22;914;48.118;11.600;2023-01-01T00:18:38;13.70;92.00
1830;DHT22;914;48.118;11.600;2023-01-01T00:21:11;14.10;91.00
1830;DHT22;914;48.118;11.600;2023-01-01T00:23:37;14.10;90.70
1830;DHT22;914;48.118;11.600;2023-01-01T00:26:10;14.20;90.00
1830;DHT22;914;48.118;11.600;2023-01-01T00:28:36;14.10;90.40
1830;DHT22;914;48.118;11.600;2023-01-01T00:31:10;14.00;90.50
1830;DHT22;914;48.118;11.600;2023-01-01T00:33:36;13.70;90.40
1830;DHT22;914;48.118;11.600;2023-01-01T00:36:12;13.60;91.50
1830;DHT22;914;48.118;11.600;2023-01-01T00:38:39;13.60;91.20
1830;DHT22;914;48.118;11.600;2023-01-01T00:41:04;13.50;90.80
1830;DHT22;914;48.118;11.600;2023-01-01T00:43:30;13.60;90.80
1830;DHT22;914;48.118;11.600;2023-01-01T00:45:56;13.40;90.10
1830;DHT22;914;48.118;11.600;2023-01-01T00:48:25;13.30;91.30
1830;DHT22;914;48.118;11.600;2023-01-01T00:50:54;13.30;90.60
1830;DHT22;914;48.118;11.600;2023-01-01T00:53:20;13.20;90.60
1830;DHT22;914;48.118;11.600;2023-01-01T00:55:47;13.00;90.40
1830;DHT22;914;48.118;11.600;2023-01-01T00:58:17;12.60;90.90
1830;DHT22;914;48.118;11.600;2023-01-01T01:00:43;12.60;91.20
1830;DHT22;914;48.118;11.600;2023-01-01T01:03:13;12.60;90.80
1830;DHT22;914;48.118;11.600;2023-01-01T01:08:29;12.70;90.80
1830;DHT22;914;48.118;11.600;2023-01-01T01:11:19;13.00;90.50
1830;DHT22;914;48.118;11.600;2023-01-01T01:13:47;12.70;89.10
1830;DHT22;914;48.118;11.600;2023-01-01T01:16:31;12.80;89.70
1830;DHT22;914;48.118;11.600;2023-01-01T01:19:02;13.00;90.20
1830;DHT22;914;48.118;11.600;2023-01-01T01:21:29;13.20;90.70
1830;DHT22;914;48.118;11.600;2023-01-01T01:24:00;13.30;90.80
1830;DHT22;914;48.118;11.600;2023-01-01T01:26:28;13.20;91.30
1830;DHT22;914;48.118;11.600;2023-01-01T01:28:55;13.10;89.00
1830;DHT22;914;48.118;11.600;2023-01-01T01:31:23;13.10;90.10
1830;DHT22;914;48.118;11.600;2023-01-01T01:33:52;13.20;90.00
1830;DHT22;914;48.118;11.600;2023-01-01T01:36:18;13.30;89.60
1830;DHT22;914;48.118;11.600;2023-01-01T01:38:44;13.50;88.90
1830;DHT22;914;48.118;11.600;2023-01-01T01:41:13;13.50;87.40
1830;DHT22;914;48.118;11.600;2023-01-01T01:46:17;13.50;86.60
1830;DHT22;914;48.118;11.600;2023-01-01T01:48:47;13.50;86.70
1830;DHT22;914;48.118;11.600;2023-01-01T01:51:26;13.50;87.00
1830;DHT22;914;48.118;11.600;2023-01-01T01:53:59;13.60;87.60
1830;DHT22;914;48.118;11.600;2023-01-01T01:56:32;13.60;89.50
1830;DHT22;914;48.118;11.600;2023-01-01T01:59:00;13.60;90.40
1830;DHT22;914;48.118;11.600;2023-01-01T02:01:26;13.50;90.00
1830;DHT22;914;48.118;11.600;2023-01-01T02:03:57;13.50;89.70
1830;DHT22;914;48.118;11.600;2023-01-01T02:06:27;13.50;88.50
1830;DHT22;914;48.118;11.600;2023-01-01T02:08:56;13.40;87.50
1830;DHT22;914;48.118;11.600;2023-01-01T02:11:22;13.10;86.60
1830;DHT22;914;48.118;11.600;2023-01-01T02:13:49;13.10;87.20
1830;DHT22;914;48.118;11.600;2023-01-01T02:16:33;13.00;86.30
1830;DHT22;914;48.118;11.600;2023-01-01T02:22:40;13.30;88.50
1830;DHT22;914;48.118;11.600;2023-01-01T02:30:22;13.00;87.00
1830;DHT22;914;48.118;11.600;2023-01-01T02:33:01;13.10;85.70
1830;DHT22;914;48.118;11.600;2023-01-01T02:35:39;13.10;85.30
1830;DHT22;914;48.118;11.600;2023-01-01T02:40:43;12.90;87.40
1830;DHT22;914;48.118;11.600;2023-01-01T02:43:10;13.00;86.50
1830;DHT22;914;48.118;11.600;2023-01-01T02:45:36;13.10;87.00
1830;DHT22;914;48.118;11.600;2023-01-01T02:48:32;13.10;85.40
1830;DHT22;914;48.118;11.600;2023-01-01T02:50:48;13.00;84.60
1830;DHT22;914;48.118;11.600;2023-01-01T02:58:51;13.30;87.00
1830;DHT22;914;48.118;11.600;2023-01-01T03:01:48;13.30;88.30
1830;DHT22;914;48.118;11.600;2023-01-01T03:04:29;13.30;87.80
1830;DHT22;914;48.118;11.600;2023-01-01T03:07:22;13.30;86.60
1830;DHT22;914;48.118;11.600;2023-01-01T03:10:11;13.30;87.40
1830;DHT22;914;48.118;11.600;2023-01-01T03:12:55;13.30;88.20
1830;DHT22;914;48.118;11.600;2023-01-01T03:15:37;13.30;85.90
1830;DHT22;914;48.118;11.600;2023-01-01T03:18:24;13.30;85.40
1830;DHT22;914;48.118;11.600;2023-01-01T03:20:52;13.30;85.20
1830;DHT22;914;48.118;11.600;2023-01-01T03:23:25;13.20;83.00
1830;DHT22;914;48.118;11.600;2023-01-01T03:25:54;13.10;83.10
1830;DHT22;914;48.118;11.600;2023-01-01T03:28:25;13.10;82.90
1830;DHT22;914;48.118;11.600;2023-01-01T03:30:53;13.10;83.30
1830;DHT22;914;48.118;11.600;2023-01-01T03:33:32;13.20;85.20
1830;DHT22;914;48.118;11.600;2023-01-01T03:36:04;13.20;85.00
1830;DHT22;914;48.118;11.600;2023-01-01T03:38:39;13.20;85.60
1830;DHT22;914;48.118;11.600;2023-01-01T03:41:10;13.20;84.60
1830;DHT22;914;48.118;11.600;2023-01-01T03:43:50;13.20;84.20
1830;DHT22;914;48.118;11.600;2023-01-01T03:46:22;12.80;83.40
1830;DHT22;914;48.118;11.600;2023-01-01T03:48:48;12.80;84.60
1830;DHT22;914;48.118;11.600;2023-01-01T03:54:51;13.00;87.20
1830;DHT22;914;48.118;11.600;2023-01-01T03:57:32;13.00;86.40
1830;DHT22;914;48.118;11.600;2023-01-01T04:00:11;13.00;87.20
1830;DHT22;914;48.118;11.600;2023-01-01T04:03:14;13.00;86.80
1830;DHT22;914;48.118;11.600;2023-01-01T04:05:41;13.10;87.20
1830;DHT22;914;48.118;11.600;2023-01-01T04:08:08;13.20;88.60
1830;DHT22;914;48.118;11.600;2023-01-01T04:10:37;13.20;87.80
1830;DHT22;914;48.118;11.600;2023-01-01T04:13:05;13.20;88.90
1830;DHT22;914;48.118;11.600;2023-01-01T04:15:33;13.10;87.40
1830;DHT22;914;48.118;11.600;2023-01-01T04:18:00;13.10;88.20
1830;DHT22;914;48.118;11.600;2023-01-01T04:20:26;13.10;88.70
1830;DHT22;914;48.118;11.600;2023-01-01T04:22:55;13.20;88.90
1830;DHT22;914;48.118;11.600;2023-01-01T04:25:21;13.20;88.70
1830;DHT22;914;48.118;11.600;2023-01-01T04:27:46;13.10;87.10
1830;DHT22;914;48.118;11.600;2023-01-01T04:30:13;13.10;88.40
1830;DHT22;914;48.118;11.600;2023-01-01T04:32:39;13.10;89.30
1830;DHT22;914;48.118;11.600;2023-01-01T04:35:05;13.00;90.00
1830;DHT22;914;48.118;11.600;2023-01-01T04:37:34;13.00;89.40
1830;DHT22;914;48.118;11.600;2023-01-01T04:40:01;13.00;89.60
1830;DHT22;914;48.118;11.600;2023-01-01T04:42:30;13.00;89.70
1830;DHT22;914;48.118;11.600;2023-01-01T04:44:58;13.00;89.00
1830;DHT22;914;48.118;11.600;2023-01-01T04:47:24;12.90;88.20
1830;DHT22;914;48.118;11.600;2023-01-01T04:49:52;12.90;88.80
1830;DHT22;914;48.118;11.600;2023-01-01T04:52:18;12.90;89.30
1830;DHT22;914;48.118;11.600;2023-01-01T04:54:44;12.90;89.10
1830;DHT22;914;48.118;11.600;2023-01-01T04:57:10;12.80;89.60
1830;DHT22;914;48.118;11.600;2023-01-01T04:59:36;12.80;89.80
1830;DHT22;914;48.118;11.600;2023-01-01T05:02:02;12.80;90.30
1830;DHT22;914;48.118;11.600;2023-01-01T05:04:27;12.70;90.40
1830;DHT22;914;48.118;11.600;2023-01-01T05:06:53;12.70;90.30
1830;DHT22;914;48.118;11.600;2023-01-01T05:09:19;12.70;90.40
1830;DHT22;914;48.118;11.600;2023-01-01T05:11:45;12.60;90.60
1830;DHT22;914;48.118;11.600;2023-01-01T05:14:11;12.50;90.50
1830;DHT22;914;48.118;11.600;2023-01-01T05:16:38;12.50;90.10
1830;DHT22;914;48.118;11.600;2023-01-01T05:19:05;12.50;89.60
1830;DHT22;914;48.118;11.600;2023-01-01T05:21:33;12.60;88.30
1830;DHT22;914;48.118;11.600;2023-01-01T05:24:02;12.60;90.00
1830;DHT22;914;48.118;11.600;2023-01-01T05:26:33;12.40;90.50
1830;DHT22;914;48.118;11.600;2023-01-01T05:29:00;12.30;91.00
1830;DHT22;914;48.118;11.600;2023-01-01T05:31:31;12.30;90.90
1830;DHT22;914;48.118;11.600;2023-01-01T05:34:01;12.30;91.00
1830;DHT22;914;48.118;11.600;2023-01-01T05:36:29;12.30;91.00
1830;DHT22;914;48.118;11.600;2023-01-01T05:38:55;12.30;91.00
1830;DHT22;914;48.118;11.600;2023-01-01T05:41:25;12.20;90.50
1830;DHT22;914;48.118;11.600;2023-01-01T05:44:00;12.20;90.00
1830;DHT22;914;48.118;11.600;2023-01-01T05:46:26;12.10;89.40
1830;DHT22;914;48.118;11.600;2023-01-01T05:48:52;12.20;89.30
1830;DHT22;914;48.118;11.600;2023-01-01T05:51:24;12.10;89.70
1830;DHT22;914;48.118;11.600;2023-01-01T05:53:56;12.20;89.80
1830;DHT22;914;48.118;11.600;2023-01-01T05:56:23;12.20;89.60
1830;DHT22;914;48.118;11.600;2023-01-01T05:58:49;12.10;88.20
1830;DHT22;914;48.118;11.600;2023-01-01T06:01:25;12.00;87.60
1830;DHT22;914;48.118;11.600;2023-01-01T06:03:52;11.90;87.90
1830;DHT22;914;48.118;11.600;2023-01-01T06:06:26;12.00;88.40
1830;DHT22;914;48.118;11.600;2023-01-01T06:08:55;12.10;88.70
1830;DHT22;914;48.118;11.600;2023-01-01T06:11:22;12.30;88.40
1830;DHT22;914;48.118;11.600;2023-01-01T06:13:54;12.40;88.80
1830;DHT22;914;48.118;11.600;2023-01-01T06:16:20;12.50;88.50
1830;DHT22;914;48.118;11.600;2023-01-01T06:18:46;12.70;87.90
1830;DHT22;914;48.118;11.600;2023-01-01T06:21:18;12.70;87.40
1830;DHT22;914;48.118;11.600;2023-01-01T06:23:44;13.00;85.70
1830;DHT22;914;48.118;11.600;2023-01-01T06:28:36;13.50;84.00
1830;DHT22;914;48.118;11.600;2023-01-01T06:31:07;13.60;83.10
1830;DHT22;914;48.118;11.600;2023-01-01T06:33:37;13.80;82.70
1830;DHT22;914;48.118;11.600;2023-01-01T06:36:06;14.00;82.00
1830;DHT22;914;48.118;11.600;2023-01-01T06:38:35;14.10;81.70
1830;DHT22;914;48.118;11.600;2023-01-01T06:41:04;13.70;83.00
1830;DHT22;914;48.118;11.600;2023-01-01T06:43:34;13.80;82.00
1830;DHT22;914;48.118;11.600;2023-01-01T06:48:31;14.10;80.60
1830;DHT22;914;48.118;11.600;2023-01-01T06:50:57;14.10;81.00
1830;DHT22;914;48.118;11.600;2023-01-01T06:53:29;14.20;80.70
1830;DHT22;914;48.118;11.600;2023-01-01T06:55:54;13.90;82.70
1830;DHT22;914;48.118;11.600;2023-01-01T06:58:20;13.70;83.60
1830;DHT22;914;48.118;11.600;2023-01-01T07:00:46;13.60;83.60
1830;DHT22;914;48.118;11.600;2023-01-01T07:03:14;13.60;84.10
1830;DHT22;914;48.118;11.600;2023-01-01T07:05:40;13.50;81.80
1830;DHT22;914;48.118;11.600;2023-01-01T07:08:06;13.50;83.60
1830;DHT22;914;48.118;11.600;2023-01-01T07:10:32;13.50;84.20
1830;DHT22;914;48.118;11.600;2023-01-01T07:12:57;13.50;84.40
1830;DHT22;914;48.118;11.600;2023-01-01T07:15:25;13.60;84.80
1830;DHT22;914;48.118;11.600;2023-01-01T07:17:51;13.60;84.40
1830;DHT22;914;48.118;11.600;2023-01-01T07:20:20;13.50;81.80
1830;DHT22;914;48.118;11.600;2023-01-01T07:22:46;13.50;81.10
1830;DHT22;914;48.118;11.600;2023-01-01T07:25:15;13.60;82.00
1830;DHT22;914;48.118;11.600;2023-01-01T07:27:41;13.70;81.90
1830;DHT22;914;48.118;11.600;2023-01-01T07:30:08;13.70;82.60
1830;DHT22;914;48.118;11.600;2023-01-01T07:32:35;13.60;83.40
1830;DHT22;914;48.118;11.600;2023-01-01T07:35:03;13.50;82.90
1830;DHT22;914;48.118;11.600;2023-01-01T07:37:29;13.40;81.90
1830;DHT22;914;48.118;11.600;2023-01-01T07:39:55;13.50;82.60
1830;DHT22;914;48.118;11.600;2023-01-01T07:42:21;13.50;82.90
1830;DHT22;914;48.118;11.600;2023-01-01T07:44:47;13.60;83.70
1830;DHT22;914;48.118;11.600;2023-01-01T07:47:23;13.60;83.90
1830;DHT22;914;48.118;11.600;2023-01-01T07:49:50;13.60;84.20
1830;DHT22;914;48.118;11.600;2023-01-01T07:52:17;13.70;84.40
1830;DHT22;914;48.118;11.600;2023-01-01T07:54:43;13.60;82.00
1830;DHT22;914;48.118;11.600;2023-01-01T07:57:09;13.40;82.40
1830;DHT22;914;48.118;11.600;2023-01-01T07:59:35;13.40;82.00
1830;DHT22;914;48.118;11.600;2023-01-01T08:02:01;13.30;82.10
1830;DHT22;914;48.118;11.600;2023-01-01T08:04:27;13.30;83.90
1830;DHT22;914;48.118;11.600;2023-01-01T08:06:53;13.50;85.10
1830;DHT22;914;48.118;11.600;2023-01-01T08:09:19;13.50;85.90
1830;DHT22;914;48.118;11.600;2023-01-01T08:11:45;13.60;85.90
1830;DHT22;914;48.118;11.600;2023-01-01T08:14:11;13.70;85.20
1830;DHT22;914;48.118;11.600;2023-01-01T08:16:37;13.70;85.70
1830;DHT22;914;48.118;11.600;2023-01-01T08:19:03;13.80;84.70
1830;DHT22;914;48.118;11.600;2023-01-01T08:21:29;13.80;85.50
1830;DHT22;914;48.118;11.600;2023-01-01T08:23:55;13.80;84.90
1830;DHT22;914;48.118;11.600;2023-01-01T08:26:32;13.80;84.90
1830;DHT22;914;48.118;11.600;2023-01-01T08:29:00;13.90;84.80
1830;DHT22;914;48.118;11.600;2023-01-01T08:31:26;13.90;84.30
1830;DHT22;914;48.118;11.600;2023-01-01T08:33:52;14.00;84.60
1830;DHT22;914;48.118;11.600;2023-01-01T08:36:17;14.10;84.90
1830;DHT22;914;48.118;11.600;2023-01-01T08:38:45;14.20;84.70
1830;DHT22;914;48.118;11.600;2023-01-01T08:41:11;14.10;84.20
1830;DHT22;914;48.118;11.600;2023-01-01T08:43:37;14.30;83.50
1830;DHT22;914;48.118;11.600;2023-01-01T08:46:02;14.30;83.50
1830;DHT22;914;48.118;11.600;2023-01-01T08:48:28;14.40;83.30
1830;DHT22;914;48.118;11.600;2023-01-01T08:50:55;14.40;81.70
1830;DHT22;914;48.118;11.600;2023-01-01T08:53:22;14.50;81.90
1830;DHT22;914;48.118;11.600;2023-01-01T08:55:55;14.70;82.00
1830;DHT22;914;48.118;11.600;2023-01-01T08:58:21;15.00;81.90
1830;DHT22;914;48.118;11.600;2023-01-01T09:00:46;15.00;82.10
1830;DHT22;914;48.118;11.600;2023-01-01T09:03:12;15.00;80.80
1830;DHT22;914;48.118;11.600;2023-01-01T09:05:38;15.30;81.50
1830;DHT22;914;48.118;11.600;2023-01-01T09:08:04;15.40;81.20
1830;DHT22;914;48.118;11.600;2023-01-01T09:10:29;15.60;81.30
1830;DHT22;914;48.118;11.600;2023-01-01T09:12:55;15.70;81.20
1830;DHT22;914;48.118;11.600;2023-01-01T09:15:21;15.80;80.80
1830;DHT22;914;48.118;11.600;2023-01-01T09:17:46;15.90;80.50
1830;DHT22;914;48.118;11.600;2023-01-01T09:20:12;16.00;80.40
1830;DHT22;914;48.118;11.600;2023-01-01T09:22:38;16.10;80.40
1830;DHT22;914;48.118;11.600;2023-01-01T09:25:04;16.40;80.50
1830;DHT22;914;48.118;11.600;2023-01-01T09:27:29;16.40;80.10
1830;DHT22;914;48.118;11.600;2023-01-01T09:29:55;16.50;79.30
1830;DHT22;914;48.118;11.600;2023-01-01T09:32:21;16.60;78.80
1830;DHT22;914;48.118;11.600;2023-01-01T09:34:48;16.60;78.20
1830;DHT22;914;48.118;11.600;2023-01-01T09:37:13;16.70;79.00
1830;DHT22;914;48.118;11.600;2023-01-01T09:39:39;16.90;78.50
1830;DHT22;914;48.118;11.600;2023-01-01T09:47:39;17.20;79.50
1830;DHT22;914;48.118;11.600;2023-01-01T09:50:17;17.40;80.20
1830;DHT22;914;48.118;11.600;2023-01-01T09:52:51;17.50;79.80
1830;DHT22;914;48.118;11.600;2023-01-01T09:58:13;18.10;78.10
1830;DHT22;914;48.118;11.600;2023-01-01T10:00:43;18.30;77.90
1830;DHT22;914;48.118;11.600;2023-01-01T10:03:40;18.50;77.90
1830;DHT22;914;48.118;11.600;2023-01-01T10:06:22;18.70;78.20
1830;DHT22;914;48.118;11.600;2023-01-01T10:11:56;19.20;77.30
1830;DHT22;914;48.118;11.600;2023-01-01T10:14:36;19.30;76.30
1830;DHT22;914;48.118;11.600;2023-01-01T10:17:30;19.30;76.40
1830;DHT22;914;48.118;11.600;2023-01-01T10:20:05;19.80;75.10
1830;DHT22;914;48.118;11.600;2023-01-01T10:22:36;19.90;75.30
1830;DHT22;914;48.118;11.600;2023-01-01T10:25:17;20.10;74.50
1830;DHT22;914;48.118;11.600;2023-01-01T10:27:51;19.80;73.70
1830;DHT22;914;48.118;11.600;2023-01-01T10:30:21;19.90;74.50
1830;DHT22;914;48.118;11.600;2023-01-01T10:32:49;20.10;74.70
1830;DHT22;914;48.118;11.600;2023-01-01T10:35:21;20.30;72.90
1830;DHT22;914;48.118;11.600;2023-01-01T10:37:49;20.20;73.40
1830;DHT22;914;48.118;11.600;2023-01-01T10:40:18;20.40;73.50
1830;DHT22;914;48.118;11.600;2023-01-01T10:42:52;20.50;73.80
1830;DHT22;914;48.118;11.600;2023-01-01T10:45:41;20.80;72.80
1830;DHT22;914;48.118;11.600;2023-01-01T10:56:02;21.00;72.70
1830;DHT22;914;48.118;11.600;2023-01-01T10:58:36;21.10;72.20
1830;DHT22;914;48.118;11.600;2023-01-01T11:01:04;21.20;69.80
1830;DHT22;914;48.118;11.600;2023-01-01T11:03:30;21.10;70.50
1830;DHT22;914;48.118;11.600;2023-01-01T11:05:59;20.50;70.70
1830;DHT22;914;48.118;11.600;2023-01-01T11:08:27;20.50;71.70
1830;DHT22;914;48.118;11.600;2023-01-01T11:10:56;20.60;71.30
1830;DHT22;914;48.118;11.600;2023-01-01T11:13:22;20.80;72.10
1830;DHT22;914;48.118;11.600;2023-01-01T11:15:48;21.00;70.70
1830;DHT22;914;48.118;11.600;2023-01-01T11:18:20;21.10;71.60
1830;DHT22;914;48.118;11.600;2023-01-01T11:20:57;21.20;71.70
1830;DHT22;914;48.118;11.600;2023-01-01T11:23:34;21.50;69.60
1830;DHT22;914;48.118;11.600;2023-01-01T11:28:30;21.90;69.40
1830;DHT22;914;48.118;11.600;2023-01-01T11:33:35;21.70;70.00
1830;DHT22;914;48.118;11.600;2023-01-01T11:36:04;21.60;69.90
1830;DHT22;914;48.118;11.600;2023-01-01T11:38:30;21.70;69.50
1830;DHT22;914;48.118;11.600;2023-01-01T11:41:06;21.80;69.70
1830;DHT22;914;48.118;11.600;2023-01-01T11:43:43;22.00;69.00
1830;DHT22;914;48.118;11.600;2023-01-01T11:46:13;22.40;69.20
1830;DHT22;914;48.118;11.600;2023-01-01T11:48:42;22.10;68.60
1830;DHT22;914;48.118;11.600;2023-01-01T11:51:10;22.40;67.80
1830;DHT22;914;48.118;11.600;2023-01-01T11:53:52;22.40;70.10
1830;DHT22;914;48.118;11.600;2023-01-01T11:56:32;22.50;67.30
1830;DHT22;914;48.118;11.600;2023-01-01T11:59:02;22.30;67.00
1830;DHT22;914;48.118;11.600;2023-01-01T12:04:06;22.00;70.60
1830;DHT22;914;48.118;11.600;2023-01-01T12:06:57;22.20;69.10
1830;DHT22;914;48.118;11.600;2023-01-01T12:12:31;22.50;68.60
1830;DHT22;914;48.118;11.600;2023-01-01T12:17:37;22.80;69.40
1830;DHT22;914;48.118;11.600;2023-01-01T12:20:21;22.80;70.00
1830;DHT22;914;48.118;11.600;2023-01-01T12:22:48;22.80;68.10
1830;DHT22;914;48.118;11.600;2023-01-01T12:25:17;22.50;67.30
1830;DHT22;914;48.118;11.600;2023-01-01T12:30:41;22.70;68.80
1830;DHT22;914;48.118;11.600;2023-01-01T12:33:20;22.80;65.90
1830;DHT22;914;48.118;11.600;2023-01-01T12:39:25;22.70;69.30
1830;DHT22;914;48.118;11.600;2023-01-01T12:42:15;22.60;69.10
1830;DHT22;914;48.118;11.600;2023-01-01T12:47:50;22.20;67.00
1830;DHT22;914;48.118;11.600;2023-01-01T12:50:46;22.20;69.30
1830;DHT22;914;48.118;11.600;2023-01-01T12:53:33;22.30;69.00
1830;DHT22;914;48.118;11.600;2023-01-01T12:56:32;22.60;69.70
1830;DHT22;914;48.118;11.600;2023-01-01T12:59:05;22.70;68.70
1830;DHT22;914;48.118;11.600;2023-01-01T13:01:34;22.70;70.50
1830;DHT22;914;48.118;11.600;2023-01-01T13:04:12;22.60;70.80
1830;DHT22;914;48.118;11.600;2023-01-01T13:06:53;22.80;68.80
1830;DHT22;914;48.118;11.600;2023-01-01T13:09:42;22.90;68.80
1830;DHT22;914;48.118;11.600;2023-01-01T13:12:21;22.30;70.40
1830;DHT22;914;48.118;11.600;2023-01-01T13:14:49;22.20;70.30
1830;DHT22;914;48.118;11.600;2023-01-01T13:17:26;22.60;69.10
1830;DHT22;914;48.118;11.600;2023-01-01T13:20:23;22.90;69.40
1830;DHT22;914;48.118;11.600;2023-01-01T13:22:51;22.50;65.60
1830;DHT22;914;48.118;11.600;2023-01-01T13:25:17;22.10;66.70
1830;DHT22;914;48.118;11.600;2023-01-01T13:33:22;22.10;71.40
1830;DHT22;914;48.118;11.600;2023-01-01T13:38:54;22.10;70.30
1830;DHT22;914;48.118;11.600;2023-01-01T13:46:42;21.30;67.20
1830;DHT22;914;48.118;11.600;2023-01-01T14:03:50;20.10;70.50
1830;DHT22;914;48.118;11.600;2023-01-01T14:06:36;20.20;70.60
1830;DHT22;914;48.118;11.600;2023-01-01T14:09:21;20.30;69.90
1830;DHT22;914;48.118;11.600;2023-01-01T14:11:47;20.50;70.20
1830;DHT22;914;48.118;11.600;2023-01-01T14:14:26;20.30;69.90
1830;DHT22;914;48.118;11.600;2023-01-01T14:16:55;20.10;70.00
1830;DHT22;914;48.118;11.600;2023-01-01T14:19:23;20.00;70.40
1830;DHT22;914;48.118;11.600;2023-01-01T14:21:50;20.00;70.20
1830;DHT22;914;48.118;11.600;2023-01-01T14:24:18;19.90;70.30
1830;DHT22;914;48.118;11.600;2023-01-01T14:26:45;20.00;70.90
1830;DHT22;914;48.118;11.600;2023-01-01T14:29:29;20.10;70.50
1830;DHT22;914;48.118;11.600;2023-01-01T14:31:58;20.20;70.70
1830;DHT22;914;48.118;11.600;2023-01-01T14:34:29;20.30;71.40
1830;DHT22;914;48.118;11.600;2023-01-01T14:36:57;20.40;70.10
1830;DHT22;914;48.118;11.600;2023-01-01T14:39:35;20.40;71.80
1830;DHT22;914;48.118;11.600;2023-01-01T14:42:06;20.50;71.60
1830;DHT22;914;48.118;11.600;2023-01-01T14:44:38;20.40;70.30
1830;DHT22;914;48.118;11.600;2023-01-01T14:47:26;20.40;71.10
1830;DHT22;914;48.118;11.600;2023-01-01T14:49:53;20.00;73.00
1830;DHT22;914;48.118;11.600;2023-01-01T14:52:24;19.60;74.00
1830;DHT22;914;48.118;11.600;2023-01-01T14:54:51;19.50;75.00
1830;DHT22;914;48.118;11.600;2023-01-01T14:57:21;19.40;75.40
1830;DHT22;914;48.118;11.600;2023-01-01T14:59:49;19.30;75.60
1830;DHT22;914;48.118;11.600;2023-01-01T15:02:26;19.00;76.40
1830;DHT22;914;48.118;11.600;2023-01-01T15:04:55;19.20;76.40
1830;DHT22;914;48.118;11.600;2023-01-01T15:07:30;19.20;76.90
1830;DHT22;914;48.118;11.600;2023-01-01T15:09:58;19.10;77.30
1830;DHT22;914;48.118;11.600;2023-01-01T15:12:28;19.00;78.30
1830;DHT22;914;48.118;11.600;2023-01-01T15:14:55;19.10;80.00
1830;DHT22;914;48.118;11.600;2023-01-01T15:17:26;19.00;80.00
1830;DHT22;914;48.118;11.600;2023-01-01T15:20:05;18.90;79.40
1830;DHT22;914;48.118;11.600;2023-01-01T15:22:33;19.00;78.80
1830;DHT22;914;48.118;11.600;2023-01-01T15:25:01;18.90;79.80
1830;DHT22;914;48.118;11.600;2023-01-01T15:27:31;18.80;80.00
1830;DHT22;914;48.118;11.600;2023-01-01T15:29:58;18.70;79.00
1830;DHT22;914;48.118;11.600;2023-01-01T15:32:30;18.60;79.50
1830;DHT22;914;48.118;11.600;2023-01-01T15:35:03;18.60;80.00
1830;DHT22;914;48.118;11.600;2023-01-01T15:37:36;18.40;81.20
1830;DHT22;914;48.118;11.600;2023-01-01T15:42:43;18.30;80.50
1830;DHT22;914;48.118;11.600;2023-01-01T15:50:58;18.00;80.00
1830;DHT22;914;48.118;11.600;2023-01-01T15:53:30;18.00;79.90
1830;DHT22;914;48.118;11.600;2023-01-01T15:56:09;18.00;79.80
1830;DHT22;914;48.118;11.600;2023-01-01T15:58:38;18.00;79.30
1830;DHT22;914;48.118;11.600;2023-01-01T16:01:10;17.90;81.00
1830;DHT22;914;48.118;11.600;2023-01-01T16:03:39;17.80;82.00
1830;DHT22;914;48.118;11.600;2023-01-01T16:06:05;17.70;80.80
1830;DHT22;914;48.118;11.600;2023-01-01T16:08:31;17.60;81.80
1830;DHT22;914;48.118;11.600;2023-01-01T16:10:57;17.60;82.50
1830;DHT22;914;48.118;11.600;2023-01-01T16:13:23;17.50;83.40
1830;DHT22;914;48.118;11.600;2023-01-01T16:16:00;17.50;84.00
1830;DHT22;914;48.118;11.600;2023-01-01T16:18:35;17.40;82.30
1830;DHT22;914;48.118;11.600;2023-01-01T16:21:02;17.40;81.20
1830;DHT22;914;48.118;11.600;2023-01-01T16:23:28;17.40;81.00
1830;DHT22;914;48.118;11.600;2023-01-01T16:25:54;17.30;82.20
1830;DHT22;914;48.118;11.600;2023-01-01T16:28:20;17.10;82.30
1830;DHT22;914;48.118;11.600;2023-01-01T16:30:46;17.10;82.70
1830;DHT22;914;48.118;11.600;2023-01-01T16:33:19;16.90;80.40
1830;DHT22;914;48.118;11.600;2023-01-01T16:35:47;16.80;80.70
1830;DHT22;914;48.118;11.600;2023-01-01T16:38:13;16.70;80.50
1830;DHT22;914;48.118;11.600;2023-01-01T16:40:39;16.60;80.40
1830;DHT22;914;48.118;11.600;2023-01-01T16:43:05;16.60;80.90
1830;DHT22;914;48.118;11.600;2023-01-01T16:45:36;16.50;80.60
1830;DHT22;914;48.118;11.600;2023-01-01T16:48:02;16.40;81.00
1830;DHT22;914;48.118;11.600;2023-01-01T16:50:28;16.30;80.50
1830;DHT22;914;48.118;11.600;2023-01-01T16:52:53;16.30;80.80
1830;DHT22;914;48.118;11.600;2023-01-01T16:55:19;16.30;81.20
1830;DHT22;914;48.118;11.600;2023-01-01T16:57:48;16.30;83.20
1830;DHT22;914;48.118;11.600;2023-01-01T17:00:14;16.20;83.80
1830;DHT22;914;48.118;11.600;2023-01-01T17:02:40;16.20;84.20
1830;DHT22;914;48.118;11.600;2023-01-01T17:05:06;16.20;84.60
1830;DHT22;914;48.118;11.600;2023-01-01T17:07:32;16.10;84.60
1830;DHT22;914;48.118;11.600;2023-01-01T17:09:57;16.00;83.70
1830;DHT22;914;48.118;11.600;2023-01-01T17:12:23;15.90;84.40
1830;DHT22;914;48.118;11.600;2023-01-01T17:14:49;15.90;84.40
1830;DHT22;914;48.118;11.600;2023-01-01T17:17:16;15.80;83.10
1830;DHT22;914;48.118;11.600;2023-01-01T17:19:41;15.70;83.50
1830;DHT22;914;48.118;11.600;2023-01-01T17:22:07;15.60;84.00
1830;DHT22;914;48.118;11.600;2023-01-01T17:24:33;15.70;84.90
1830;DHT22;914;48.118;11.600;2023-01-01T17:26:58;15.50;82.90
1830;DHT22;914;48.118;11.600;2023-01-01T17:29:24;15.40;84.40
1830;DHT22;914;48.118;11.600;2023-01-01T17:31:50;15.40;84.90
1830;DHT22;914;48.118;11.600;2023-01-01T17:34:16;15.40;85.40
1830;DHT22;914;48.118;11.600;2023-01-01T17:36:43;15.30;84.60
1830;DHT22;914;48.118;11.600;2023-01-01T17:39:10;15.20;84.50
1830;DHT22;914;48.118;11.600;2023-01-01T17:41:35;15.10;83.50
1830;DHT22;914;48.118;11.600;2023-01-01T17:44:02;15.00;84.10
1830;DHT22;914;48.118;11.600;2023-01-01T17:46:29;15.00;83.50
1830;DHT22;914;48.118;11.600;2023-01-01T17:48:56;14.90;84.30
1830;DHT22;914;48.118;11.600;2023-01-01T17:51:22;15.00;84.00
1830;DHT22;914;48.118;11.600;2023-01-01T17:53:51;14.90;84.00
1830;DHT22;914;48.118;11.600;2023-01-01T17:56:19;14.90;84.10
1830;DHT22;914;48.118;11.600;2023-01-01T17:58:47;14.70;83.90
1830;DHT22;914;48.118;11.600;2023-01-01T18:03:51;14.80;86.00
1830;DHT22;914;48.118;11.600;2023-01-01T18:06:17;14.80;86.20
1830;DHT22;914;48.118;11.600;2023-01-01T18:08:43;14.70;84.50
1830;DHT22;914;48.118;11.600;2023-01-01T18:11:09;14.50;84.30
1830;DHT22;914;48.118;11.600;2023-01-01T18:13:35;14.40;84.90